This is the latest recevied weather packets stored in our database for station/object KV4OP. If no packets are shown the sender has not sent any weather packets the latest 10 day(s).
| Time | Temp. | Humidity | Pressure | Rain* | Wind** | Luminosity | Snow |
|---|---|---|---|---|---|---|---|
| 1777739868 | 30.56° C | 65% | 1011.5 hPa | 0 mm | - | - | - |
| 1777739706 | 29.44° C | 65% | 1011.1 hPa | 0 mm | - | - | - |
| 1777739561 | 30° C | 65% | 1011.5 hPa | 0 mm | - | - | - |
| 1777739436 | 29.44° C | 65% | 1011.4 hPa | 0 mm | - | - | - |
| 1777739254 | 30° C | 65% | 1011.6 hPa | 0 mm | - | - | - |
| 1777739172 | 29.44° C | 65% | 1011.4 hPa | 0 mm | - | - | - |
| 1777738958 | 30° C | 64% | 1011.3 hPa | 0 mm | - | - | - |
| 1777738844 | 30° C | 64% | 1011.2 hPa | 0 mm | - | - | - |
| 1777738562 | 30° C | 64% | 1011.3 hPa | 0 mm | - | - | - |
| 1777738242 | 30° C | 64% | 1011.5 hPa | 0 mm | - | - | - |
| 1777737942 | 29.44° C | 64% | 1011.4 hPa | 0 mm | - | - | - |
| 1777737662 | 29.44° C | 64% | 1011.4 hPa | 0 mm | - | - | - |
| 1777737340 | 28.89° C | 65% | 1011.4 hPa | 0 mm | - | - | - |
| 1777737041 | 29.44° C | 65% | 1011.5 hPa | 0 mm | - | - | - |
| 1777736747 | 29.44° C | 64% | 1011.7 hPa | 0 mm | - | - | - |
| 1777736439 | 29.44° C | 65% | 1011.6 hPa | 0 mm | - | - | - |
| 1777736138 | 28.89° C | 66% | 1011.7 hPa | 0 mm | - | - | - |
| 1777735837 | 28.89° C | 65% | 1011.7 hPa | 0 mm | - | - | - |
| 1777735536 | 28.89° C | 67% | 1011.7 hPa | 0 mm | - | - | - |
| 1777735235 | 28.33° C | 67% | 1011.8 hPa | 0 mm | - | - | - |
| 1777734933 | 27.78° C | 68% | 1011.8 hPa | 0 mm | - | - | - |
| 1777734635 | 27.78° C | 68% | 1011.9 hPa | 0 mm | - | - | - |
| 1777734333 | 27.78° C | 68% | 1011.8 hPa | 0 mm | - | - | - |
| 1777734033 | 27.78° C | 67% | 1011.9 hPa | 0 mm | - | - | - |
| 1777733735 | 28.33° C | 67% | 1012 hPa | 0 mm | - | - | - |
* Rain latest hour (hover to see other rain measurements)
** Current wind speed in m/s (hover to see current wind gust speed)